Time;durP1;ratioP1;P1;durP2;ratioP2;P2;SDS_P1;SDS_P2;PMS_P1;PMS_P2;Temp;Humidity;BMP_temperature;BMP_pressure;BME280_temperature;BME280_humidity;BME280_pressure;Samples;Min_cycle;Max_cycle;Signal;HPM_P1;HPM_P2
2023/07/19 00:01:57;;;;;;;;;;;;;;;15.42;79.85;95272.25;6280864;28;19924;-71
2023/07/19 00:04:59;;;;;;;;;;;;;;;15.50;79.90;95269.59;6298168;28;19924;-70
2023/07/19 00:08:02;;;;;;;;;;;;;;;15.58;79.94;95264.25;6298390;28;19924;-71
2023/07/19 00:11:03;;;;;;;;;;;;;;;15.65;79.70;95265.25;6281041;28;20075;-71
2023/07/19 00:14:05;;;;;;;;;;;;;;;15.71;79.58;95264.59;6280420;28;20022;-71
2023/07/19 00:17:07;;;;;;;;;;;;;;;15.76;79.65;95261.41;6297607;28;19932;-71
2023/07/19 00:20:11;;;;;;;;;;;;;;;15.82;79.51;95263.38;6280658;28;20394;-71
2023/07/19 00:23:12;;;;;;;;;;;;;;;15.87;79.42;95262.88;6297891;28;19924;-70
2023/07/19 00:26:16;;;;;;;;;;;;;;;15.86;79.51;95261.25;6299648;28;19925;-70
2023/07/19 00:29:17;;;;;;;;;;;;;;;15.88;79.23;95264.53;6298066;28;20421;-70
2023/07/19 00:32:20;;;;;;;;;;;;;;;15.85;79.45;95259.56;6298293;28;19925;-70
2023/07/19 00:35:22;;;;;;;;;;;;;;;15.86;79.32;95261.25;6280136;28;19924;-70
2023/07/19 00:38:23;;;;;;;;;;;;;;;15.89;79.33;95260.88;6279739;28;19935;-71
2023/07/19 00:41:27;;;;;;;;;;;;;;;15.94;79.54;95255.91;6298367;28;20290;-71
2023/07/19 00:44:30;;;;;;;;;;;;;;;15.99;79.31;95255.38;6298088;28;20283;-70
2023/07/19 00:47:34;;;;;;;;;;;;;;;16.04;79.33;95248.53;6297958;28;19978;-71
2023/07/19 00:50:35;;;;;;;;;;;;;;;16.09;79.26;95256.81;6297031;28;19924;-71
2023/07/19 00:53:39;;;;;;;;;;;;;;;16.11;79.11;95257.47;6298109;28;19924;-71
2023/07/19 00:56:42;;;;;;;;;;;;;;;16.16;78.79;95257.78;6297915;28;19928;-71
2023/07/19 00:59:48;;;;;;;;;;;;;;;16.15;78.18;95265.91;6297863;28;20011;-70
2023/07/19 01:02:58;;;;;;;;;;;;;;;16.15;77.80;95261.44;6297777;28;19924;-71
2023/07/19 01:06:05;;;;;;;;;;;;;;;16.14;78.14;95262.44;6280451;28;19925;-71
2023/07/19 01:09:09;;;;;;;;;;;;;;;16.28;78.34;95260.88;6297758;28;19979;-70
2023/07/19 01:12:10;;;;;;;;;;;;;;;16.44;77.87;95259.94;6297486;28;20304;-70
2023/07/19 01:15:11;;;;;;;;;;;;;;;16.52;77.68;95259.06;6297612;28;19924;-70
2023/07/19 01:18:13;;;;;;;;;;;;;;;16.59;77.94;95252.91;6297479;28;19924;-71
2023/07/19 01:21:16;;;;;;;;;;;;;;;16.69;77.72;95262.47;6296633;28;19947;-70
2023/07/19 01:24:18;;;;;;;;;;;;;;;16.86;77.89;95258.69;6297391;28;19925;-71
2023/07/19 01:27:21;;;;;;;;;;;;;;;17.05;77.24;95255.56;6297349;28;19924;-71
2023/07/19 01:30:23;;;;;;;;;;;;;;;17.09;76.97;95257.84;6296090;28;20058;-70
2023/07/19 01:33:24;;;;;;;;;;;;;;;17.26;76.94;95254.06;6296491;28;20095;-71
2023/07/19 01:36:26;;;;;;;;;;;;;;;17.54;77.01;95256.13;6296669;28;19924;-71
2023/07/19 01:39:29;;;;;;;;;;;;;;;17.78;76.23;95247.91;6296865;28;19924;-70
2023/07/19 01:42:35;;;;;;;;;;;;;;;18.03;75.85;95250.25;6296789;28;19924;-72
2023/07/19 01:45:38;;;;;;;;;;;;;;;18.24;74.75;95246.84;6296854;28;19924;-70
2023/07/19 01:48:44;;;;;;;;;;;;;;;18.50;74.92;95251.66;6296333;28;19924;-70
2023/07/19 01:51:47;;;;;;;;;;;;;;;18.73;74.25;95244.31;6296382;28;19924;-71
2023/07/19 01:54:51;;;;;;;;;;;;;;;18.96;73.68;95251.31;6278922;28;19930;-71
2023/07/19 01:57:57;;;;;;;;;;;;;;;19.23;73.41;95242.53;6295873;28;19924;-71
2023/07/19 02:01:03;;;;;;;;;;;;;;;19.42;72.68;95240.19;6296312;28;19924;-71
2023/07/19 02:04:06;;;;;;;;;;;;;;;19.58;72.54;95239.09;6295762;28;19924;-71
2023/07/19 02:07:09;;;;;;;;;;;;;;;19.61;72.42;95238.69;6296167;28;20095;-70
2023/07/19 02:10:13;;;;;;;;;;;;;;;19.60;72.23;95239.72;6277884;28;19931;-71
2023/07/19 02:13:16;;;;;;;;;;;;;;;19.69;72.79;95242.06;6294994;28;20424;-71
2023/07/19 02:16:19;;;;;;;;;;;;;;;19.69;71.34;95241.25;6296006;28;19924;-70
2023/07/19 02:19:23;;;;;;;;;;;;;;;19.43;71.68;95241.88;6278375;28;20469;-71
2023/07/19 02:22:24;;;;;;;;;;;;;;;19.19;72.17;95249.28;6294672;28;20302;-71
2023/07/19 02:25:25;;;;;;;;;;;;;;;19.25;72.76;95243.19;6294805;28;19975;-72
2023/07/19 02:28:29;;;;;;;;;;;;;;;19.32;73.16;95247.75;6278329;28;19924;-72
2023/07/19 02:31:30;;;;;;;;;;;;;;;19.29;72.46;95247.09;6294125;28;20027;-70
2023/07/19 02:34:35;;;;;;;;;;;;;;;19.12;72.51;95247.56;6277976;28;19924;-71
2023/07/19 02:37:40;;;;;;;;;;;;;;;19.11;73.38;95238.75;6279985;28;19925;-70
2023/07/19 02:40:45;;;;;;;;;;;;;;;19.13;72.58;95242.03;6296245;28;19924;-71
2023/07/19 02:43:49;;;;;;;;;;;;;;;19.20;72.62;95239.44;6295347;28;20009;-71
2023/07/19 02:46:52;;;;;;;;;;;;;;;19.46;72.10;95236.16;6277675;28;20386;-70
2023/07/19 02:49:56;;;;;;;;;;;;;;;19.69;71.53;95242.06;6295019;28;19924;-72
2023/07/19 02:52:57;;;;;;;;;;;;;;;19.90;71.53;95248.34;6294446;28;19925;-71
2023/07/19 02:56:00;;;;;;;;;;;;;;;20.23;70.88;95247.69;6295063;28;20305;-71
2023/07/19 02:59:02;;;;;;;;;;;;;;;20.59;69.51;95258.94;6293716;28;20413;-71
2023/07/19 03:02:09;;;;;;;;;;;;;;;20.90;69.02;95262.94;6294994;28;19925;-71
2023/07/19 03:05:12;;;;;;;;;;;;;;;21.08;68.39;95268.50;6294421;28;19924;-71
2023/07/19 03:08:18;;;;;;;;;;;;;;;21.22;68.55;95255.16;6276690;28;20010;-72
2023/07/19 03:11:19;;;;;;;;;;;;;;;21.49;68.64;95275.56;6275778;28;19931;-70
2023/07/19 03:14:21;;;;;;;;;;;;;;;21.67;67.43;95274.09;6293969;28;19983;-72
2023/07/19 03:17:22;;;;;;;;;;;;;;;21.63;66.81;95283.59;6294818;28;19920;-71
2023/07/19 03:20:27;;;;;;;;;;;;;;;21.68;66.99;95278.41;6294789;28;20301;-72
2023/07/19 03:23:32;;;;;;;;;;;;;;;21.92;67.15;95275.09;6293671;28;19924;-71
2023/07/19 03:26:38;;;;;;;;;;;;;;;22.29;66.00;95283.47;6277019;28;19920;-71
2023/07/19 03:29:42;;;;;;;;;;;;;;;22.59;65.28;95278.41;6294699;28;19924;-71
2023/07/19 03:32:45;;;;;;;;;;;;;;;22.64;64.72;95283.13;6275809;28;19932;-71
2023/07/19 03:35:49;;;;;;;;;;;;;;;22.56;64.95;95280.69;6294436;28;19944;-71
2023/07/19 03:38:50;;;;;;;;;;;;;;;22.47;65.09;95285.47;6293944;28;19925;-71
2023/07/19 03:41:57;;;;;;;;;;;;;;;22.32;65.82;95283.06;6276774;28;20297;-72
2023/07/19 03:44:58;;;;;;;;;;;;;;;22.37;65.96;95288.59;6293258;28;19925;-70
2023/07/19 03:47:59;;;;;;;;;;;;;;;22.39;64.57;95280.34;6293533;28;20362;-72
2023/07/19 03:51:01;;;;;;;;;;;;;;;21.92;64.54;95280.44;6293622;28;19975;-72
2023/07/19 03:54:04;;;;;;;;;;;;;;;21.63;65.41;95280.91;6294402;28;19953;-71
2023/07/19 03:57:08;;;;;;;;;;;;;;;21.46;65.85;95286.69;6294468;28;19924;-71
2023/07/19 04:00:12;;;;;;;;;;;;;;;21.40;65.91;95284.84;6294293;28;19924;-72
2023/07/19 04:03:13;;;;;;;;;;;;;;;21.29;66.30;95285.41;6293803;28;19924;-72
2023/07/19 04:06:18;;;;;;;;;;;;;;;21.23;65.37;95276.34;6276197;28;19924;-70
2023/07/19 04:09:18;;;;;;;;;;;;;;;20.87;65.82;95276.72;6291463;28;20015;-70
2023/07/19 04:12:22;;;;;;;;;;;;;;;20.60;66.65;95276.63;6293997;28;20091;-72
2023/07/19 04:15:28;;;;;;;;;;;;;;;20.42;67.05;95273.66;6293990;28;20306;-71
2023/07/19 04:18:53;;;;;;;;;;;;;;;20.31;67.18;95276.91;6294530;28;20403;-72
2023/07/19 04:21:57;;;;;;;;;;;;;;;20.13;67.36;95270.25;6296099;28;19932;-72
2023/07/19 04:25:03;;;;;;;;;;;;;;;20.04;67.23;95279.47;6298331;28;19924;-72
2023/07/19 04:28:06;;;;;;;;;;;;;;;19.98;67.24;95272.22;6280070;28;19925;-72
2023/07/19 04:31:13;;;;;;;;;;;;;;;20.00;67.30;95280.03;6298204;28;19924;-70
2023/07/19 04:34:17;;;;;;;;;;;;;;;20.18;67.10;95270.50;6280141;28;19970;-71
2023/07/19 04:37:22;;;;;;;;;;;;;;;20.60;66.55;95275.81;6280463;28;19924;-71
2023/07/19 04:40:25;;;;;;;;;;;;;;;21.05;65.21;95271.59;6298077;28;19924;-72
2023/07/19 04:43:31;;;;;;;;;;;;;;;21.32;64.35;95258.25;6298060;28;20390;-71
2023/07/19 04:46:35;;;;;;;;;;;;;;;22.40;63.04;95261.38;6297844;28;20015;-72
2023/07/19 04:49:37;;;;;;;;;;;;;;;25.52;55.55;95267.44;6280257;28;19932;-71
2023/07/19 04:52:46;;;;;;;;;;;;;;;29.00;49.22;95274.50;6297415;28;20054;-72
2023/07/19 04:55:51;;;;;;;;;;;;;;;31.47;44.20;95261.44;6297853;28;20313;-71
2023/07/19 04:58:55;;;;;;;;;;;;;;;33.27;42.58;95265.38;6297743;28;19925;-71
2023/07/19 05:01:57;;;;;;;;;;;;;;;33.19;39.70;95268.72;6297643;28;19925;-71
2023/07/19 05:05:00;;;;;;;;;;;;;;;32.95;40.28;95280.25;6297681;28;19924;-71
2023/07/19 05:08:06;;;;;;;;;;;;;;;35.69;39.44;95288.00;6297754;28;20018;-71
2023/07/19 05:11:09;;;;;;;;;;;;;;;36.43;34.91;95279.09;6296561;28;20401;-71
2023/07/19 05:14:12;;;;;;;;;;;;;;;36.68;36.02;95282.50;6296757;28;19950;-71
2023/07/19 05:17:15;;;;;;;;;;;;;;;38.90;33.37;95277.81;6296328;28;20301;-72
2023/07/19 05:20:23;;;;;;;;;;;;;;;41.40;31.86;95283.28;6297102;28;19924;-71
2023/07/19 05:23:25;;;;;;;;;;;;;;;44.01;30.31;95280.25;6296873;28;20404;-72
2023/07/19 05:26:30;;;;;;;;;;;;;;;45.76;20.99;95281.06;6297364;28;20337;-71
2023/07/19 05:29:33;;;;;;;;;;;;;;;47.45;25.54;95277.41;6297658;28;19924;-71
2023/07/19 05:32:35;;;;;;;;;;;;;;;48.60;23.55;95266.84;6295206;28;19925;-72
2023/07/19 05:35:39;;;;;;;;;;;;;;;48.79;22.02;95269.41;6296628;28;19924;-71
2023/07/19 05:38:41;;;;;;;;;;;;;;;49.61;21.92;95264.44;6295438;28;20325;-72
2023/07/19 05:41:42;;;;;;;;;;;;;;;50.72;22.04;95264.03;6296621;28;20050;-71
2023/07/19 05:44:46;;;;;;;;;;;;;;;50.54;21.19;95253.59;6296784;28;19924;-73
2023/07/19 05:47:52;;;;;;;;;;;;;;;50.39;16.51;95256.78;6296086;28;19935;-72
2023/07/19 05:50:56;;;;;;;;;;;;;;;46.90;19.74;95246.25;6296285;28;19924;-71
2023/07/19 05:54:03;;;;;;;;;;;;;;;42.06;25.01;95243.94;6295997;28;19928;-73
2023/07/19 05:57:04;;;;;;;;;;;;;;;37.62;29.43;95218.75;6276980;28;19947;-72
2023/07/19 06:00:18;;;;;;;;;;;;;;;34.75;32.63;95201.25;6295110;28;20015;-73
2023/07/19 06:03:19;;;;;;;;;;;;;;;32.56;32.94;95204.72;6295343;28;19924;-71
2023/07/19 06:06:25;;;;;;;;;;;;;;;30.55;33.99;95191.38;6294812;28;20019;-73
2023/07/19 06:09:26;;;;;;;;;;;;;;;28.40;36.65;95195.03;6261117;28;19924;-72
2023/07/19 06:12:27;;;;;;;;;;;;;;;27.17;37.61;95191.63;6294961;28;19925;-72
2023/07/19 06:15:29;;;;;;;;;;;;;;;26.46;39.33;95191.09;6277190;28;20341;-73
2023/07/19 06:18:30;;;;;;;;;;;;;;;25.88;39.98;95201.78;6294879;28;20386;-72
2023/07/19 06:21:31;;;;;;;;;;;;;;;24.20;46.56;95196.41;6294820;28;20390;-73
2023/07/19 06:24:33;;;;;;;;;;;;;;;23.69;49.97;95202.94;6277438;28;20043;-73
2023/07/19 06:27:40;;;;;;;;;;;;;;;25.31;49.83;95206.91;6294721;28;19931;-72
2023/07/19 06:30:46;;;;;;;;;;;;;;;23.39;51.72;95204.69;6295135;28;19932;-72
2023/07/19 06:33:48;;;;;;;;;;;;;;;21.71;54.97;95211.06;6277641;28;20306;-72
2023/07/19 06:36:52;;;;;;;;;;;;;;;21.04;56.59;95224.50;6277516;28;19931;-71
2023/07/19 06:39:55;;;;;;;;;;;;;;;20.72;57.24;95238.63;6294136;28;19960;-72
2023/07/19 06:42:56;;;;;;;;;;;;;;;20.81;56.44;95240.09;6294658;28;19928;-73
2023/07/19 06:46:00;;;;;;;;;;;;;;;21.15;55.23;95235.63;6294435;28;19924;-73
2023/07/19 06:49:04;;;;;;;;;;;;;;;21.55;54.11;95230.28;6277950;28;19924;-72
2023/07/19 06:52:10;;;;;;;;;;;;;;;21.78;54.61;95230.63;6277484;28;19924;-72
2023/07/19 06:55:11;;;;;;;;;;;;;;;22.27;54.69;95223.91;6294718;28;20309;-73
2023/07/19 06:58:15;;;;;;;;;;;;;;;22.80;53.20;95223.66;6295108;28;20382;-72
2023/07/19 07:01:16;;;;;;;;;;;;;;;23.40;53.89;95233.16;6294152;28;20439;-72
2023/07/19 07:04:17;;;;;;;;;;;;;;;23.98;51.80;95230.16;6294913;28;20275;-72
2023/07/19 07:07:19;;;;;;;;;;;;;;;24.39;50.98;95236.69;6294854;28;19925;-73
2023/07/19 07:10:22;;;;;;;;;;;;;;;24.75;49.76;95235.03;6294219;28;20011;-72
2023/07/19 07:13:24;;;;;;;;;;;;;;;25.02;49.22;95233.59;6294756;28;19928;-72
2023/07/19 07:16:29;;;;;;;;;;;;;;;25.26;52.30;95239.06;6294693;28;20019;-72
2023/07/19 07:19:30;;;;;;;;;;;;;;;25.92;49.63;95224.47;6294353;28;19924;-72
2023/07/19 07:22:34;;;;;;;;;;;;;;;27.15;46.16;95237.75;6294098;28;19932;-73
2023/07/19 07:25:37;;;;;;;;;;;;;;;28.27;44.84;95243.28;6294269;28;19968;-73
2023/07/19 07:28:43;;;;;;;;;;;;;;;28.54;44.59;95255.03;6294680;28;19924;-73
2023/07/19 07:31:46;;;;;;;;;;;;;;;28.20;45.26;95243.47;6294298;28;19924;-73
2023/07/19 07:34:50;;;;;;;;;;;;;;;27.77;46.38;95250.41;6294454;28;19928;-74
2023/07/19 07:37:54;;;;;;;;;;;;;;;27.34;47.37;95242.94;6294604;28;20297;-72
2023/07/19 07:40:58;;;;;;;;;;;;;;;26.68;47.16;95237.13;6293987;28;20089;-73
2023/07/19 07:44:02;;;;;;;;;;;;;;;25.93;48.47;95247.69;6294369;28;19925;-73
2023/07/19 07:47:04;;;;;;;;;;;;;;;25.46;50.14;95244.94;6275863;28;19928;-72
2023/07/19 07:50:09;;;;;;;;;;;;;;;25.20;50.44;95235.44;6294580;28;19924;-72
2023/07/19 07:53:12;;;;;;;;;;;;;;;25.02;50.38;95225.50;6294154;28;19925;-73
2023/07/19 07:56:16;;;;;;;;;;;;;;;24.68;50.88;95228.91;6295717;28;19946;-73
2023/07/19 07:59:22;;;;;;;;;;;;;;;24.35;50.69;95222.91;6299009;28;19924;-73
2023/07/19 08:02:25;;;;;;;;;;;;;;;24.08;50.36;95225.06;6298459;28;19924;-73
2023/07/19 08:05:27;;;;;;;;;;;;;;;23.89;50.41;95221.56;6298105;28;19924;-72
2023/07/19 08:08:33;;;;;;;;;;;;;;;23.72;50.19;95218.66;6299132;28;19924;-73
2023/07/19 08:11:34;;;;;;;;;;;;;;;23.63;51.01;95217.22;6298843;28;20313;-73
2023/07/19 08:14:37;;;;;;;;;;;;;;;23.77;51.82;95227.88;6297866;28;19925;-72
2023/07/19 08:17:39;;;;;;;;;;;;;;;23.97;49.60;95226.63;6298033;28;20390;-73
2023/07/19 08:20:42;;;;;;;;;;;;;;;24.06;53.10;95224.47;6298673;28;19924;-73
2023/07/19 08:23:47;;;;;;;;;;;;;;;24.23;49.70;95216.63;6298454;28;19932;-73
2023/07/19 08:26:48;;;;;;;;;;;;;;;24.43;48.88;95219.13;6280183;28;19925;-73
2023/07/19 08:29:51;;;;;;;;;;;;;;;24.51;48.36;95224.16;6298203;28;20317;-73
2023/07/19 08:32:56;;;;;;;;;;;;;;;24.51;48.45;95226.03;6298550;28;19948;-74
2023/07/19 08:35:57;;;;;;;;;;;;;;;24.34;48.58;95223.91;6297960;28;20290;-73
2023/07/19 08:39:00;;;;;;;;;;;;;;;24.21;49.50;95245.59;6280583;28;20351;-72
2023/07/19 08:42:04;;;;;;;;;;;;;;;24.14;49.12;95245.66;6298292;28;19924;-72
2023/07/19 08:45:08;;;;;;;;;;;;;;;23.95;49.68;95252.91;6298206;28;19924;-72
2023/07/19 08:48:12;;;;;;;;;;;;;;;23.58;50.96;95245.78;6279416;28;20290;-73
2023/07/19 08:51:16;;;;;;;;;;;;;;;23.29;51.63;95232.00;6297890;28;20023;-73
2023/07/19 08:54:22;;;;;;;;;;;;;;;23.23;51.45;95244.41;6279429;28;19969;-73
2023/07/19 08:57:27;;;;;;;;;;;;;;;22.98;52.37;95227.47;6297974;28;19925;-72
2023/07/19 09:00:34;;;;;;;;;;;;;;;22.50;53.20;95234.13;6297051;28;19927;-71
2023/07/19 09:03:38;;;;;;;;;;;;;;;22.25;54.11;95230.53;6297039;28;20338;-72
2023/07/19 09:06:42;;;;;;;;;;;;;;;22.18;53.99;95235.91;6296954;28;20070;-73
2023/07/19 09:09:53;;;;;;;;;;;;;;;22.09;53.86;95237.97;6297344;28;19920;-73
2023/07/19 09:12:56;;;;;;;;;;;;;;;22.05;54.91;95241.28;6297608;28;19924;-73
2023/07/19 09:16:02;;;;;;;;;;;;;;;22.12;54.26;95229.50;6297392;28;19928;-73
2023/07/19 09:19:07;;;;;;;;;;;;;;;22.28;53.34;95230.09;6278838;28;19924;-73
2023/07/19 09:22:10;;;;;;;;;;;;;;;22.44;52.89;95229.59;6297274;28;19924;-72
2023/07/19 09:25:11;;;;;;;;;;;;;;;22.41;52.39;95220.13;6296627;28;19924;-72
2023/07/19 09:28:16;;;;;;;;;;;;;;;22.52;52.09;95215.97;6279273;28;19928;-73
2023/07/19 09:31:19;;;;;;;;;;;;;;;22.74;51.75;95216.47;6296450;28;19924;-73
2023/07/19 09:34:23;;;;;;;;;;;;;;;23.15;50.71;95209.00;6296517;28;19967;-72
2023/07/19 09:37:24;;;;;;;;;;;;;;;23.58;49.89;95209.03;6278108;28;19928;-72
2023/07/19 09:40:26;;;;;;;;;;;;;;;24.11;49.34;95219.25;6296729;28;19924;-73
2023/07/19 09:43:33;;;;;;;;;;;;;;;24.64;48.14;95212.41;6279102;28;20001;-72
2023/07/19 09:46:37;;;;;;;;;;;;;;;24.98;47.35;95221.66;6295879;28;20393;-72
2023/07/19 09:49:42;;;;;;;;;;;;;;;25.33;46.89;95210.16;6278892;28;20294;-72
2023/07/19 09:52:46;;;;;;;;;;;;;;;25.89;45.92;95219.56;6278299;28;19931;-74
2023/07/19 09:55:48;;;;;;;;;;;;;;;26.58;44.95;95217.00;6295957;28;19928;-73
2023/07/19 09:58:56;;;;;;;;;;;;;;;27.55;43.80;95220.59;6277824;28;19932;-73
2023/07/19 10:02:00;;;;;;;;;;;;;;;28.53;42.07;95231.72;6296057;28;19925;-72
2023/07/19 10:05:09;;;;;;;;;;;;;;;29.20;41.04;95232.47;6296008;28;19920;-72
2023/07/19 10:08:10;;;;;;;;;;;;;;;29.86;40.60;95222.19;6296015;28;20420;-73
2023/07/19 10:11:20;;;;;;;;;;;;;;;30.70;39.31;95220.47;6277187;28;19927;-73
2023/07/19 10:14:27;;;;;;;;;;;;;;;31.80;37.82;95226.63;6295854;28;20452;-74
2023/07/19 10:17:41;;;;;;;;;;;;;;;33.13;36.68;95237.13;6295556;28;20414;-71
2023/07/19 10:21:02;;;;;;;;;;;;;;;35.23;31.78;95239.44;6277185;28;20301;-73
2023/07/19 10:24:10;;;;;;;;;;;;;;;37.22;30.51;95242.44;6278387;28;19925;-72
2023/07/19 10:27:34;;;;;;;;;;;;;;;38.27;27.96;95250.34;6295847;28;19925;-72
2023/07/19 10:30:43;;;;;;;;;;;;;;;38.99;28.20;95242.91;6296472;28;19928;-73
2023/07/19 10:33:44;;;;;;;;;;;;;;;40.27;26.93;95236.91;6295470;28;19924;-73
2023/07/19 10:36:51;;;;;;;;;;;;;;;41.28;25.97;95236.28;6295145;28;19932;-72
2023/07/19 10:39:54;;;;;;;;;;;;;;;41.65;24.97;95239.28;6295155;28;20021;-72
2023/07/19 10:42:55;;;;;;;;;;;;;;;41.51;24.50;95242.31;6295282;28;19925;-72
2023/07/19 10:45:59;;;;;;;;;;;;;;;40.75;25.27;95240.50;6277128;28;19924;-73
2023/07/19 10:49:02;;;;;;;;;;;;;;;40.25;24.24;95239.19;6295532;28;20393;-73
2023/07/19 10:52:06;;;;;;;;;;;;;;;39.03;23.89;95232.88;6294450;28;19931;-73
2023/07/19 10:55:13;;;;;;;;;;;;;;;38.85;25.53;95237.50;6295210;28;19928;-72
2023/07/19 10:58:17;;;;;;;;;;;;;;;39.64;25.05;95247.53;6295006;28;19932;-72
2023/07/19 11:01:21;;;;;;;;;;;;;;;39.89;23.87;95254.16;6277785;28;20398;-73
2023/07/19 11:04:28;;;;;;;;;;;;;;;38.93;23.67;95244.19;6294954;28;19928;-72
2023/07/19 11:07:33;;;;;;;;;;;;;;;37.25;24.82;95245.38;6295504;28;19924;-72
2023/07/19 11:10:35;;;;;;;;;;;;;;;35.89;27.65;95234.03;6294783;28;20385;-73
2023/07/19 11:13:39;;;;;;;;;;;;;;;36.55;27.11;95243.03;6294757;28;20390;-72
2023/07/19 11:16:41;;;;;;;;;;;;;;;37.47;26.10;95244.59;6294090;28;19932;-72
2023/07/19 11:19:46;;;;;;;;;;;;;;;38.43;24.71;95242.53;6294610;28;19924;-73
2023/07/19 11:22:47;;;;;;;;;;;;;;;37.80;24.42;95235.38;6276470;28;19928;-72
2023/07/19 11:25:51;;;;;;;;;;;;;;;35.29;26.05;95235.50;6294467;28;20382;-72
2023/07/19 11:28:56;;;;;;;;;;;;;;;32.26;29.84;95224.66;6293569;28;20323;-73
2023/07/19 11:32:18;;;;;;;;;;;;;;;30.12;32.96;95211.50;6296278;28;20010;-74
2023/07/19 11:35:26;;;;;;;;;;;;;;;28.83;35.43;95211.50;6299258;28;19924;-73
2023/07/19 11:38:27;;;;;;;;;;;;;;;28.02;36.40;95214.81;6299361;28;20374;-78
2023/07/19 11:41:33;;;;;;;;;;;;;;;27.01;38.29;95214.81;6299563;28;19925;-73
2023/07/19 11:44:44;;;;;;;;;;;;;;;26.31;39.45;95222.09;6299519;28;20403;-72
2023/07/19 11:47:48;;;;;;;;;;;;;;;25.82;40.73;95224.25;6299177;28;19928;-73
2023/07/19 11:50:52;;;;;;;;;;;;;;;25.39;42.15;95230.75;6299357;28;19930;-74
2023/07/19 11:53:56;;;;;;;;;;;;;;;25.05;43.19;95241.22;6299141;28;19925;-73
2023/07/19 11:57:01;;;;;;;;;;;;;;;24.87;42.75;95241.25;6299109;28;20225;-73
2023/07/19 12:00:09;;;;;;;;;;;;;;;24.73;43.11;95250.56;6298887;28;19928;-73
2023/07/19 12:03:10;;;;;;;;;;;;;;;24.57;43.77;95250.16;6297925;28;19925;-74
2023/07/19 12:06:16;;;;;;;;;;;;;;;24.37;44.84;95262.97;6298719;28;19924;-73
2023/07/19 12:09:22;;;;;;;;;;;;;;;24.30;44.79;95254.19;6298790;28;19924;-73
2023/07/19 12:12:23;;;;;;;;;;;;;;;24.29;45.28;95248.00;6298274;28;19932;-73
2023/07/19 12:15:24;;;;;;;;;;;;;;;24.41;45.59;95245.38;6297651;28;19925;-73
2023/07/19 12:18:28;;;;;;;;;;;;;;;24.58;47.26;95235.66;6298327;28;20088;-72
2023/07/19 12:21:29;;;;;;;;;;;;;;;24.35;47.92;95235.53;6297601;28;19924;-73
2023/07/19 12:24:31;;;;;;;;;;;;;;;24.19;48.45;95235.06;6298119;28;19931;-72
2023/07/19 12:27:35;;;;;;;;;;;;;;;24.09;49.15;95240.16;6280879;28;19928;-73
2023/07/19 12:30:39;;;;;;;;;;;;;;;24.12;49.31;95239.72;6297737;28;20401;-73
2023/07/19 12:33:42;;;;;;;;;;;;;;;23.98;48.92;95235.53;6298016;28;20409;-74
2023/07/19 12:36:47;;;;;;;;;;;;;;;24.17;46.92;95239.84;6297966;28;19925;-74
2023/07/19 12:39:52;;;;;;;;;;;;;;;24.81;43.82;95231.44;6298227;28;20026;-72
2023/07/19 12:42:53;;;;;;;;;;;;;;;25.27;41.81;95230.75;6297883;28;19924;-73
2023/07/19 12:45:58;;;;;;;;;;;;;;;25.72;41.20;95219.44;6298087;28;20380;-74
2023/07/19 12:49:01;;;;;;;;;;;;;;;26.50;39.83;95219.22;6298006;28;19930;-74
2023/07/19 12:52:02;;;;;;;;;;;;;;;27.00;39.12;95223.97;6297018;28;20310;-74
2023/07/19 12:55:05;;;;;;;;;;;;;;;27.54;37.96;95232.47;6297645;28;20449;-74
2023/07/19 12:58:09;;;;;;;;;;;;;;;28.06;37.75;95221.38;6297949;28;20018;-75
2023/07/19 13:01:14;;;;;;;;;;;;;;;28.55;37.28;95224.19;6296734;28;20290;-72
2023/07/19 13:04:21;;;;;;;;;;;;;;;28.97;36.59;95226.28;6297299;28;20330;-73
2023/07/19 13:07:26;;;;;;;;;;;;;;;28.77;36.91;95228.78;6278894;28;19932;-74
2023/07/19 13:10:31;;;;;;;;;;;;;;;28.51;36.68;95228.47;6297677;28;20449;-73
2023/07/19 13:13:35;;;;;;;;;;;;;;;28.31;37.50;95225.47;6296955;28;19936;-75
2023/07/19 13:16:47;;;;;;;;;;;;;;;28.23;37.54;95220.53;6297315;28;20405;-73
2023/07/19 13:19:52;;;;;;;;;;;;;;;28.01;37.46;95217.78;6279957;28;19920;-74
2023/07/19 13:22:53;;;;;;;;;;;;;;;27.56;38.17;95227.63;6296369;28;19924;-74
2023/07/19 13:25:57;;;;;;;;;;;;;;;27.28;38.76;95215.84;6297259;28;20386;-73
2023/07/19 13:28:59;;;;;;;;;;;;;;;27.22;38.81;95227.63;6296700;28;19932;-73
2023/07/19 13:32:01;;;;;;;;;;;;;;;27.13;38.96;95226.34;6296690;28;19928;-73
2023/07/19 13:35:03;;;;;;;;;;;;;;;27.18;38.85;95221.09;6296067;28;19924;-72
2023/07/19 13:38:07;;;;;;;;;;;;;;;26.93;39.20;95218.72;6295508;28;20030;-73
2023/07/19 13:41:08;;;;;;;;;;;;;;;26.82;39.25;95222.28;6296038;28;19924;-73
2023/07/19 13:44:09;;;;;;;;;;;;;;;26.16;39.97;95232.56;6295933;28;19971;-73
2023/07/19 13:47:12;;;;;;;;;;;;;;;25.26;42.00;95236.38;6296618;28;20018;-73
2023/07/19 13:50:19;;;;;;;;;;;;;;;24.84;42.81;95233.66;6279013;28;19987;-71
2023/07/19 13:53:25;;;;;;;;;;;;;;;24.34;43.74;95233.84;6295486;28;20077;-72
2023/07/19 13:56:29;;;;;;;;;;;;;;;24.02;44.61;95231.34;6295728;28;19924;-74
2023/07/19 13:59:36;;;;;;;;;;;;;;;23.65;45.25;95225.91;6296164;28;20019;-73
2023/07/19 14:02:39;;;;;;;;;;;;;;;23.41;45.97;95226.72;6296426;28;20386;-73
2023/07/19 14:05:43;;;;;;;;;;;;;;;23.15;46.60;95225.91;6296100;28;20027;-73
2023/07/19 14:08:45;;;;;;;;;;;;;;;22.92;47.36;95222.94;6295446;28;19949;-72
2023/07/19 14:11:49;;;;;;;;;;;;;;;22.81;47.86;95219.09;6278710;28;19928;-72
2023/07/19 14:14:52;;;;;;;;;;;;;;;22.75;48.51;95223.47;6295711;28;19924;-73
2023/07/19 14:17:55;;;;;;;;;;;;;;;22.78;48.57;95228.41;6295186;28;19924;-73
2023/07/19 14:21:01;;;;;;;;;;;;;;;22.82;48.79;95224.25;6296083;28;19921;-72
2023/07/19 14:24:05;;;;;;;;;;;;;;;22.91;48.88;95230.19;6296004;28;19925;-74
2023/07/19 14:27:06;;;;;;;;;;;;;;;22.85;49.93;95237.22;6295011;28;19928;-73
2023/07/19 14:30:09;;;;;;;;;;;;;;;22.81;49.02;95236.00;6294650;28;19928;-73
2023/07/19 14:33:10;;;;;;;;;;;;;;;22.84;50.37;95235.59;6294239;28;19931;-73
2023/07/19 14:36:12;;;;;;;;;;;;;;;22.83;50.01;95225.88;6294682;28;19925;-74
2023/07/19 14:39:14;;;;;;;;;;;;;;;23.21;50.87;95230.41;6276633;28;20015;-72
2023/07/19 14:42:17;;;;;;;;;;;;;;;23.20;51.13;95236.81;6276687;28;19924;-73
2023/07/19 14:45:21;;;;;;;;;;;;;;;23.07;51.99;95243.09;6295253;28;20382;-73
2023/07/19 14:48:26;;;;;;;;;;;;;;;22.91;52.40;95250.81;6294559;28;20219;-73
2023/07/19 14:51:30;;;;;;;;;;;;;;;22.69;52.88;95253.81;6294534;28;19924;-73
2023/07/19 14:54:33;;;;;;;;;;;;;;;22.74;53.41;95258.56;6294474;28;19924;-72
2023/07/19 14:57:36;;;;;;;;;;;;;;;22.57;53.74;95268.94;6294441;28;19924;-72
2023/07/19 15:00:38;;;;;;;;;;;;;;;22.40;53.85;95266.75;6294210;28;19924;-73
2023/07/19 15:03:41;;;;;;;;;;;;;;;22.40;54.46;95266.75;6294609;28;19925;-72
2023/07/19 15:06:45;;;;;;;;;;;;;;;22.21;54.43;95270.31;6294100;28;20001;-73
2023/07/19 15:09:46;;;;;;;;;;;;;;;22.33;54.55;95268.59;6293912;28;19925;-72
2023/07/19 15:12:47;;;;;;;;;;;;;;;22.23;54.60;95273.63;6293910;28;19935;-73
2023/07/19 15:15:48;;;;;;;;;;;;;;;22.23;55.07;95272.78;6294025;28;20306;-73
2023/07/19 15:18:52;;;;;;;;;;;;;;;22.09;55.56;95269.28;6294473;28;19931;-74
2023/07/19 15:21:55;;;;;;;;;;;;;;;22.10;55.40;95276.28;6294694;28;20405;-72
2023/07/19 15:24:58;;;;;;;;;;;;;;;21.96;55.30;95270.97;6294572;28;20309;-73
2023/07/19 15:28:04;;;;;;;;;;;;;;;21.77;55.52;95271.00;6294528;28;19924;-72
2023/07/19 15:31:08;;;;;;;;;;;;;;;21.58;56.01;95278.84;6294777;28;20394;-72
2023/07/19 15:34:13;;;;;;;;;;;;;;;21.42;56.37;95280.06;6294643;28;20404;-72
2023/07/19 15:37:13;;;;;;;;;;;;;;;21.38;56.76;95281.53;6294042;28;20010;-73
2023/07/19 15:40:17;;;;;;;;;;;;;;;21.34;56.42;95282.09;6293705;28;19924;-73
2023/07/19 15:43:22;;;;;;;;;;;;;;;21.26;56.89;95283.97;6294555;28;19924;-73
2023/07/19 15:46:24;;;;;;;;;;;;;;;21.15;57.73;95294.47;6293743;28;19931;-72
2023/07/19 15:49:30;;;;;;;;;;;;;;;21.05;57.38;95295.66;6293951;28;19954;-73
2023/07/19 15:52:31;;;;;;;;;;;;;;;20.93;57.69;95291.94;6294099;28;19925;-74
2023/07/19 15:55:34;;;;;;;;;;;;;;;20.83;57.83;95292.34;6294361;28;20031;-75
2023/07/19 15:58:35;;;;;;;;;;;;;;;20.75;58.05;95297.00;6294406;28;19925;-74